Time;durP1;ratioP1;P1;durP2;ratioP2;P2;SDS_P1;SDS_P2;PMS_P1;PMS_P2;Temp;Humidity;BMP_temperature;BMP_pressure;BME280_temperature;BME280_humidity;BME280_pressure;Samples;Min_cycle;Max_cycle;Signal;HPM_P1;HPM_P2
2023/05/15 00:02:28;;;;;;;5.80;5.00;;;11.60;1.40;;;;;;7370237;19;20070;-71
2023/05/15 00:04:58;;;;;;;7.75;5.20;;;11.60;2.00;;;;;;7367804;19;20035;-71
2023/05/15 00:07:28;;;;;;;5.38;4.88;;;11.60;1.90;;;;;;7370261;19;20010;-71
2023/05/15 00:09:58;;;;;;;5.82;4.93;;;11.70;1.40;;;;;;7386271;19;20018;-71
2023/05/15 00:12:28;;;;;;;7.47;5.57;;;11.70;1.50;;;;;;7391985;19;20019;-71
2023/05/15 00:14:58;;;;;;;6.88;5.10;;;11.70;1.00;;;;;;7367362;19;20062;-71
2023/05/15 00:17:31;;;;;;;5.97;5.10;;;11.80;1.00;;;;;;7370131;19;20466;-71
2023/05/15 00:20:01;;;;;;;7.35;5.30;;;11.70;1.00;;;;;;7368493;19;20025;-71
2023/05/15 00:22:30;;;;;;;5.95;4.85;;;11.70;1.00;;;;;;7370027;19;20048;-71
2023/05/15 00:25:00;;;;;;;4.93;4.38;;;11.80;1.00;;;;;;7367998;19;20454;-71
2023/05/15 00:27:30;;;;;;;6.05;5.07;;;11.90;1.00;;;;;;7389776;19;20013;-71
2023/05/15 00:30:00;;;;;;;7.90;4.57;;;11.80;1.00;;;;;;7367138;19;20014;-71
2023/05/15 00:32:33;;;;;;;5.53;4.80;;;11.80;1.00;;;;;;7369449;19;20017;-71
2023/05/15 00:35:04;;;;;;;6.00;4.60;;;11.80;1.00;;;;;;7367352;19;20011;-72
2023/05/15 00:37:34;;;;;;;6.70;4.97;;;11.80;1.00;;;;;;7368368;19;20120;-71
2023/05/15 00:40:04;;;;;;;6.55;4.65;;;11.80;1.00;;;;;;7367431;19;20014;-71
2023/05/15 00:42:34;;;;;;;5.38;4.65;;;11.90;1.00;;;;;;7391248;19;20029;-70
2023/05/15 00:45:07;;;;;;;5.75;4.63;;;11.90;1.00;;;;;;7366088;19;20476;-71
2023/05/15 00:47:41;;;;;;;5.63;4.30;;;11.90;1.00;;;;;;7368200;19;20368;-71
2023/05/15 00:50:12;;;;;;;6.25;4.63;;;12.00;1.00;;;;;;7368671;19;20415;-71
2023/05/15 00:52:42;;;;;;;5.68;4.60;;;12.00;1.00;;;;;;7369902;19;20078;-71
2023/05/15 00:55:12;;;;;;;5.30;4.63;;;12.00;1.00;;;;;;7366902;19;20015;-71
2023/05/15 00:57:43;;;;;;;6.50;5.10;;;11.90;1.00;;;;;;7387986;19;20609;-71
2023/05/15 01:00:17;;;;;;;6.43;4.82;;;11.90;1.00;;;;;;7366731;19;20039;-71
2023/05/15 01:02:49;;;;;;;5.30;4.10;;;11.90;1.00;;;;;;7368337;19;20013;-71
2023/05/15 01:05:20;;;;;;;5.78;4.20;;;11.80;1.00;;;;;;7367267;19;20315;-71
2023/05/15 01:07:56;;;;;;;6.25;4.93;;;11.70;1.00;;;;;;7367298;19;20008;-71
2023/05/15 01:10:27;;;;;;;5.72;4.88;;;11.60;1.00;;;;;;7366778;19;20102;-71
2023/05/15 01:12:58;;;;;;;6.05;4.78;;;11.60;1.00;;;;;;7390704;19;20558;-71
2023/05/15 01:15:28;;;;;;;7.30;5.40;;;11.50;1.30;;;;;;7366200;19;20011;-71
2023/05/15 01:18:02;;;;;;;7.53;5.43;;;11.50;2.20;;;;;;7367993;19;19999;-70
2023/05/15 01:20:35;;;;;;;6.55;5.63;;;11.40;2.40;;;;;;7367401;19;20010;-70
2023/05/15 01:23:13;;;;;;;8.57;5.73;;;11.40;2.60;;;;;;7368306;19;20006;-70
2023/05/15 01:26:07;;;;;;;7.95;6.25;;;11.30;2.80;;;;;;7366738;19;20081;-70
2023/05/15 01:28:47;;;;;;;7.32;5.65;;;11.30;3.30;;;;;;7368131;19;20014;-70
2023/05/15 01:31:20;;;;;;;6.80;5.72;;;11.20;3.70;;;;;;7365771;19;20051;-70
2023/05/15 01:33:56;;;;;;;7.35;6.22;;;11.20;4.10;;;;;;7387268;19;20018;-71
2023/05/15 01:36:33;;;;;;;8.10;6.00;;;11.10;4.20;;;;;;7367865;19;20021;-71
2023/05/15 01:39:04;;;;;;;7.20;6.15;;;11.10;4.80;;;;;;7366499;19;20030;-71
2023/05/15 01:41:43;;;;;;;8.48;6.22;;;11.10;5.00;;;;;;7366012;19;20018;-71
2023/05/15 01:44:19;;;;;;;7.05;5.50;;;11.10;5.60;;;;;;7365602;19;20018;-71
2023/05/15 01:46:53;;;;;;;6.90;5.55;;;11.10;5.70;;;;;;7367584;19;20031;-71
2023/05/15 01:49:27;;;;;;;8.27;6.15;;;11.00;5.60;;;;;;7370804;19;20029;-71
2023/05/15 01:52:03;;;;;;;8.82;5.70;;;11.00;6.60;;;;;;7395774;19;20007;-71
2023/05/15 01:54:35;;;;;;;7.28;5.82;;;11.00;6.70;;;;;;7371722;19;20002;-71
2023/05/15 01:57:05;;;;;;;6.13;5.13;;;11.00;6.20;;;;;;7373605;19;20011;-70
2023/05/15 01:59:38;;;;;;;6.78;5.25;;;10.90;6.80;;;;;;7373257;19;20006;-71
2023/05/15 02:02:09;;;;;;;7.88;5.30;;;11.00;6.60;;;;;;7374220;19;20010;-71
2023/05/15 02:04:40;;;;;;;6.90;5.07;;;11.00;6.90;;;;;;7371951;19;20070;-71
2023/05/15 02:07:10;;;;;;;6.72;4.75;;;11.00;6.80;;;;;;7373853;19;20010;-71
2023/05/15 02:09:41;;;;;;;6.32;4.93;;;11.00;6.80;;;;;;7394663;19;20019;-71
2023/05/15 02:12:12;;;;;;;6.47;4.70;;;11.00;6.40;;;;;;7373425;19;20388;-71
2023/05/15 02:14:45;;;;;;;6.45;4.93;;;10.90;6.80;;;;;;7370914;19;20017;-71
2023/05/15 02:17:15;;;;;;;5.70;4.90;;;10.90;6.80;;;;;;7373663;19;20133;-70
2023/05/15 02:19:45;;;;;;;7.60;5.90;;;10.90;7.70;;;;;;7373051;19;20050;-71
2023/05/15 02:22:15;;;;;;;5.38;4.80;;;10.90;8.40;;;;;;7374649;19;20353;-70
2023/05/15 02:24:45;;;;;;;7.65;5.53;;;10.90;8.40;;;;;;7393178;19;20373;-71
2023/05/15 02:27:21;;;;;;;6.47;5.47;;;10.90;9.00;;;;;;7372564;19;20042;-71
2023/05/15 02:30:07;;;;;;;6.55;4.78;;;11.00;8.50;;;;;;7369742;19;20014;-71
2023/05/15 02:32:45;;;;;;;6.32;5.53;;;11.10;8.50;;;;;;7373764;19;20029;-71
2023/05/15 02:35:21;;;;;;;7.38;5.13;;;11.00;8.90;;;;;;7371071;19;20014;-71
2023/05/15 02:37:55;;;;;;;6.72;5.13;;;11.10;8.50;;;;;;7373084;19;20332;-71
2023/05/15 02:40:27;;;;;;;6.60;5.18;;;11.00;8.50;;;;;;7371046;19;20017;-71
2023/05/15 02:42:59;;;;;;;6.70;5.50;;;11.00;8.80;;;;;;7395270;19;20459;-71
2023/05/15 02:45:32;;;;;;;6.40;5.47;;;11.00;9.00;;;;;;7371070;19;20470;-71
2023/05/15 02:48:03;;;;;;;11.13;6.65;;;11.10;8.80;;;;;;7371112;19;20014;-71
2023/05/15 02:50:34;;;;;;;8.50;6.63;;;11.20;9.40;;;;;;7370883;19;20082;-71
2023/05/15 02:53:04;;;;;;;9.90;6.20;;;11.10;8.60;;;;;;7372861;19;20011;-71
2023/05/15 02:55:35;;;;;;;7.53;5.88;;;11.20;8.60;;;;;;7371989;19;20015;-71
2023/05/15 02:58:05;;;;;;;7.70;5.57;;;11.20;8.60;;;;;;7372865;19;20015;-71
2023/05/15 03:00:38;;;;;;;8.23;6.07;;;11.20;8.40;;;;;;7390849;19;20014;-71
2023/05/15 03:03:08;;;;;;;8.35;5.97;;;11.20;8.60;;;;;;7371194;19;20014;-71
2023/05/15 03:05:38;;;;;;;7.38;5.93;;;11.30;8.70;;;;;;7370753;19;20454;-71
2023/05/15 03:08:07;;;;;;;8.60;5.38;;;11.20;9.10;;;;;;7371965;19;20017;-71
2023/05/15 03:10:37;;;;;;;6.95;5.65;;;11.20;8.60;;;;;;7371217;19;20017;-71
2023/05/15 03:13:07;;;;;;;7.90;5.90;;;11.20;8.70;;;;;;7371148;19;20011;-71
2023/05/15 03:15:40;;;;;;;9.73;6.03;;;11.20;8.60;;;;;;7392447;19;20015;-71
2023/05/15 03:18:10;;;;;;;7.13;5.72;;;11.20;8.60;;;;;;7371489;19;20006;-71
2023/05/15 03:20:39;;;;;;;6.40;5.70;;;11.30;8.70;;;;;;7371206;19;20031;-71
2023/05/15 03:23:09;;;;;;;9.15;5.30;;;11.30;8.60;;;;;;7370732;19;20006;-71
2023/05/15 03:25:39;;;;;;;5.85;5.25;;;11.30;8.70;;;;;;7370585;19;20011;-71
2023/05/15 03:28:10;;;;;;;6.88;5.63;;;11.20;8.60;;;;;;7370837;19;20467;-71
2023/05/15 03:30:45;;;;;;;7.22;6.07;;;11.20;8.70;;;;;;7390981;19;20459;-71
2023/05/15 03:33:15;;;;;;;6.97;5.95;;;11.20;9.00;;;;;;7370776;19;20018;-71
2023/05/15 03:35:45;;;;;;;7.85;6.05;;;11.20;8.80;;;;;;7370309;19;20074;-71
2023/05/15 03:38:15;;;;;;;8.35;5.60;;;11.20;9.90;;;;;;7370879;19;20010;-71
2023/05/15 03:40:45;;;;;;;9.45;6.13;;;11.10;10.10;;;;;;7370053;19;20510;-71
2023/05/15 03:43:17;;;;;;;7.93;6.13;;;11.10;10.50;;;;;;7370793;19;20023;-71
2023/05/15 03:45:50;;;;;;;6.55;5.80;;;11.10;11.50;;;;;;7390337;19;20010;-71
2023/05/15 03:48:20;;;;;;;7.30;6.13;;;11.10;11.50;;;;;;7369350;19;20024;-71
2023/05/15 03:50:51;;;;;;;9.20;6.38;;;11.10;11.70;;;;;;7369397;19;20078;-71
2023/05/15 03:53:21;;;;;;;7.97;5.53;;;11.30;11.50;;;;;;7369572;19;20465;-71
2023/05/15 03:55:51;;;;;;;7.53;6.25;;;11.30;11.00;;;;;;7370205;19;20472;-71
2023/05/15 03:58:21;;;;;;;6.95;5.97;;;11.40;10.60;;;;;;7370076;19;20501;-71
2023/05/15 04:00:53;;;;;;;7.03;5.93;;;11.50;10.00;;;;;;7390066;19;21422;-71
2023/05/15 04:03:23;;;;;;;8.68;5.82;;;11.50;10.50;;;;;;7368235;19;20018;-71
2023/05/15 04:05:53;;;;;;;8.50;6.07;;;11.50;10.10;;;;;;7370418;19;20419;-71
2023/05/15 04:08:23;;;;;;;8.93;6.65;;;11.50;9.90;;;;;;7369097;19;20024;-71
2023/05/15 04:10:53;;;;;;;7.13;6.10;;;11.50;10.80;;;;;;7366752;19;20027;-71
2023/05/15 04:13:23;;;;;;;7.55;6.50;;;11.50;11.10;;;;;;7367632;19;20493;-71
2023/05/15 04:15:55;;;;;;;8.20;6.53;;;11.50;11.30;;;;;;7391171;19;20018;-70
2023/05/15 04:18:26;;;;;;;7.53;6.00;;;11.80;9.50;;;;;;7369766;19;20017;-71
2023/05/15 04:20:56;;;;;;;7.18;6.47;;;12.90;2.30;;;;;;7367672;19;20002;-71
2023/05/15 04:23:26;;;;;;;7.88;6.30;;;12.60;1.00;;;;;;7367422;19;20087;-71
2023/05/15 04:25:56;;;;;;;7.47;6.40;;;12.60;2.00;;;;;;7368190;19;20853;-71
2023/05/15 04:28:26;;;;;;;7.35;6.15;;;13.10;1.00;;;;;;7369826;19;20006;-71
2023/05/15 04:31:00;;;;;;;10.38;6.03;;;14.20;1.00;;;;;;7388783;19;20010;-71
2023/05/15 04:33:30;;;;;;;6.80;5.93;;;13.30;1.00;;;;;;7367394;19;20018;-71
2023/05/15 04:36:00;;;;;;;7.68;6.20;;;12.90;1.00;;;;;;7368605;19;20017;-72
2023/05/15 04:38:31;;;;;;;6.18;5.47;;;12.50;1.50;;;;;;7369325;19;20023;-72
2023/05/15 04:41:01;;;;;;;6.32;5.53;;;12.90;1.60;;;;;;7366596;19;20014;-71
2023/05/15 04:43:31;;;;;;;7.55;6.00;;;13.70;1.00;;;;;;7367381;19;20269;-72
2023/05/15 04:46:03;;;;;;;6.85;5.85;;;15.20;1.00;;;;;;7368840;19;20026;-72
2023/05/15 04:48:33;;;;;;;8.88;6.55;;;14.40;1.00;;;;;;7389994;19;20022;-71
2023/05/15 04:51:03;;;;;;;9.02;6.25;;;13.10;1.00;;;;;;7367295;19;20506;-71
2023/05/15 04:53:33;;;;;;;8.93;6.18;;;12.50;2.00;;;;;;7367166;19;20090;-71
2023/05/15 04:56:03;;;;;;;9.98;6.43;;;12.50;3.20;;;;;;7368323;19;20796;-71
2023/05/15 04:58:33;;;;;;;8.35;6.13;;;12.70;2.10;;;;;;7368716;19;20014;-71
2023/05/15 05:01:06;;;;;;;8.75;6.28;;;12.80;2.80;;;;;;7366435;19;20010;-71
2023/05/15 05:03:36;;;;;;;8.05;6.35;;;13.10;1.00;;;;;;7388468;19;20014;-72
2023/05/15 05:06:07;;;;;;;7.15;6.45;;;14.60;1.00;;;;;;7367650;19;20118;-72
2023/05/15 05:08:36;;;;;;;8.02;6.13;;;15.60;1.00;;;;;;7368909;19;20109;-72
2023/05/15 05:11:06;;;;;;;8.20;5.70;;;15.90;1.00;;;;;;7366774;19;20014;-72
2023/05/15 05:13:36;;;;;;;7.35;5.57;;;16.00;1.00;;;;;;7364866;19;20403;-72
2023/05/15 05:16:09;;;;;;;8.35;6.22;;;17.60;1.00;;;;;;7367992;19;20412;-72
2023/05/15 05:18:39;;;;;;;6.90;6.13;;;17.20;1.00;;;;;;7389890;19;20022;-70
2023/05/15 05:21:09;;;;;;;8.30;5.47;;;18.30;1.00;;;;;;7366711;19;20011;-71
2023/05/15 05:23:39;;;;;;;7.07;5.90;;;18.40;1.00;;;;;;7371592;19;20029;-71
2023/05/15 05:26:09;;;;;;;12.88;6.03;;;18.40;1.00;;;;;;7376095;19;20006;-71
2023/05/15 05:28:39;;;;;;;6.95;5.95;;;16.80;1.00;;;;;;7373734;19;20083;-71
2023/05/15 05:31:11;;;;;;;8.00;6.15;;;17.50;1.00;;;;;;7370109;19;20023;-72
2023/05/15 05:33:41;;;;;;;8.80;6.40;;;16.70;1.00;;;;;;7394973;19;20010;-71
2023/05/15 05:36:12;;;;;;;9.50;6.50;;;15.80;1.00;;;;;;7373674;19;20011;-71
2023/05/15 05:38:42;;;;;;;9.05;7.13;;;15.50;1.00;;;;;;7373420;19;20467;-72
2023/05/15 05:41:12;;;;;;;12.75;7.32;;;16.40;1.00;;;;;;7372481;19;20506;-72
2023/05/15 05:43:42;;;;;;;8.38;7.13;;;16.20;1.00;;;;;;7372471;19;20688;-72
2023/05/15 05:46:15;;;;;;;8.05;6.57;;;15.60;1.00;;;;;;7375109;19;20025;-71
2023/05/15 05:48:45;;;;;;;7.93;6.80;;;15.80;1.00;;;;;;7394979;19;20015;-71
2023/05/15 05:51:16;;;;;;;9.18;7.30;;;16.60;1.00;;;;;;7371005;19;20018;-71
2023/05/15 05:53:46;;;;;;;11.70;7.28;;;15.00;1.00;;;;;;7371448;19;20011;-71
2023/05/15 05:56:16;;;;;;;9.05;6.88;;;14.30;1.00;;;;;;7374148;19;20066;-71
2023/05/15 05:58:46;;;;;;;8.70;6.63;;;14.30;1.00;;;;;;7373251;19;20007;-71
2023/05/15 06:01:18;;;;;;;10.27;6.90;;;14.30;1.00;;;;;;7372058;19;20015;-71
2023/05/15 06:03:48;;;;;;;8.02;6.15;;;14.20;1.00;;;;;;7392549;19;20018;-72
2023/05/15 06:06:18;;;;;;;6.93;5.88;;;14.80;1.00;;;;;;7373586;19;20014;-70
2023/05/15 06:08:48;;;;;;;8.85;6.47;;;14.90;1.00;;;;;;7372486;19;20363;-70
2023/05/15 06:11:18;;;;;;;6.75;6.05;;;14.90;1.00;;;;;;7372157;19;20100;-70
2023/05/15 06:13:47;;;;;;;7.50;5.88;;;15.30;1.00;;;;;;7370017;19;20517;-71
2023/05/15 06:16:20;;;;;;;7.32;6.63;;;16.20;1.00;;;;;;7373439;19;20518;-70
2023/05/15 06:18:50;;;;;;;7.88;6.32;;;17.60;1.00;;;;;;7394827;19;20372;-70
2023/05/15 06:21:21;;;;;;;7.95;6.15;;;18.10;1.00;;;;;;7372113;19;20458;-71
2023/05/15 06:23:50;;;;;;;8.48;6.47;;;16.80;1.00;;;;;;7369540;19;20028;-71
2023/05/15 06:26:20;;;;;;;8.73;6.15;;;15.80;1.00;;;;;;7372338;19;20066;-72
2023/05/15 06:28:50;;;;;;;6.85;6.15;;;17.30;1.00;;;;;;7372003;19;20495;-72
2023/05/15 06:31:23;;;;;;;7.78;6.93;;;15.70;1.00;;;;;;7370718;19;20018;-71
2023/05/15 06:33:53;;;;;;;8.88;5.95;;;15.40;1.00;;;;;;7390742;19;20031;-71
2023/05/15 06:36:23;;;;;;;8.82;6.50;;;14.90;1.00;;;;;;7372273;19;20010;-71
2023/05/15 06:38:53;;;;;;;9.57;6.40;;;14.60;1.00;;;;;;7371276;19;20011;-71
2023/05/15 06:41:23;;;;;;;7.30;5.82;;;14.90;1.00;;;;;;7371487;19;20014;-71
2023/05/15 06:43:53;;;;;;;11.27;5.65;;;15.50;1.00;;;;;;7370238;19;20014;-71
2023/05/15 06:46:26;;;;;;;8.00;5.72;;;15.70;1.00;;;;;;7372075;19;20093;-72
2023/05/15 06:48:56;;;;;;;8.23;6.10;;;15.50;1.00;;;;;;7394085;19;20083;-71
2023/05/15 06:51:26;;;;;;;7.32;5.60;;;15.60;1.00;;;;;;7369126;19;20039;-73
2023/05/15 06:53:56;;;;;;;8.60;5.68;;;14.90;1.00;;;;;;7368833;19;20065;-72
2023/05/15 06:56:26;;;;;;;7.93;5.55;;;15.20;1.00;;;;;;7372056;19;20023;-72
2023/05/15 06:58:55;;;;;;;6.63;5.85;;;15.00;1.00;;;;;;7371967;19;20010;-72
2023/05/15 07:01:28;;;;;;;8.18;5.28;;;15.60;1.00;;;;;;7370555;19;20021;-72
2023/05/15 07:03:58;;;;;;;6.80;5.93;;;15.10;1.00;;;;;;7391233;19;20467;-72
2023/05/15 07:06:30;;;;;;;6.45;5.72;;;15.70;1.00;;;;;;7371315;19;20013;-72
2023/05/15 07:09:00;;;;;;;6.50;5.35;;;15.90;1.00;;;;;;7370552;19;20015;-72
2023/05/15 07:11:32;;;;;;;7.50;5.53;;;15.80;1.00;;;;;;7370014;19;20013;-72
2023/05/15 07:14:02;;;;;;;6.38;5.72;;;16.00;1.00;;;;;;7368399;19;20014;-71
2023/05/15 07:16:34;;;;;;;6.75;5.18;;;15.90;1.00;;;;;;7371243;19;20150;-72
2023/05/15 07:19:04;;;;;;;6.20;4.97;;;15.50;1.00;;;;;;7370110;19;20124;-71
2023/05/15 07:21:34;;;;;;;5.75;4.78;;;15.60;1.00;;;;;;7392868;19;20086;-72
2023/05/15 07:24:04;;;;;;;6.05;5.45;;;15.90;1.00;;;;;;7367446;19;20034;-72
2023/05/15 07:26:35;;;;;;;7.55;4.95;;;15.60;1.00;;;;;;7370176;19;20006;-72
2023/05/15 07:29:19;;;;;;;5.95;5.00;;;15.70;1.00;;;;;;7369295;19;20185;-72
2023/05/15 07:31:51;;;;;;;5.07;4.53;;;16.10;1.00;;;;;;7369703;19;20007;-73
2023/05/15 07:34:22;;;;;;;5.75;5.15;;;16.40;1.00;;;;;;7367904;19;20022;-72
2023/05/15 07:36:52;;;;;;;5.20;4.70;;;16.70;1.00;;;;;;7392648;19;20025;-72
2023/05/15 07:39:22;;;;;;;5.63;4.25;;;17.10;1.00;;;;;;7370181;19;20014;-72
2023/05/15 07:41:52;;;;;;;4.72;4.22;;;16.80;1.00;;;;;;7369340;19;20010;-72
2023/05/15 07:44:22;;;;;;;5.65;5.05;;;17.20;1.00;;;;;;7367803;19;20074;-73
2023/05/15 07:46:57;;;;;;;4.90;3.92;;;16.80;1.00;;;;;;7367983;19;20029;-73
2023/05/15 07:49:26;;;;;;;4.05;3.47;;;16.40;1.00;;;;;;7369761;19;20078;-72
2023/05/15 07:51:56;;;;;;;6.07;3.65;;;16.50;1.00;;;;;;7390337;19;20022;-73
2023/05/15 07:54:26;;;;;;;8.05;4.38;;;16.70;1.00;;;;;;7367787;19;20027;-72
2023/05/15 07:56:56;;;;;;;5.80;4.20;;;16.90;1.00;;;;;;7369383;19;20035;-72
2023/05/15 07:59:26;;;;;;;5.38;4.22;;;16.70;1.00;;;;;;7369127;19;20490;-73
2023/05/15 08:01:59;;;;;;;4.38;3.70;;;16.40;1.00;;;;;;7369073;19;20094;-73
2023/05/15 08:04:29;;;;;;;5.28;3.72;;;16.70;1.00;;;;;;7367315;19;20011;-73
2023/05/15 08:06:59;;;;;;;4.78;3.03;;;16.60;1.00;;;;;;7385856;19;20762;-72
2023/05/15 08:09:28;;;;;;;3.58;3.13;;;16.70;1.00;;;;;;7390770;19;20727;-73
2023/05/15 08:12:16;;;;;;;4.75;3.75;;;16.80;1.00;;;;;;7368740;19;20027;-73
2023/05/15 08:14:46;;;;;;;4.55;3.80;;;16.70;1.00;;;;;;7366834;19;20451;-73
2023/05/15 08:17:19;;;;;;;5.93;3.70;;;16.60;1.00;;;;;;7369502;19;20023;-73
2023/05/15 08:19:50;;;;;;;4.82;3.72;;;16.80;1.00;;;;;;7369168;19;20056;-72
2023/05/15 08:22:20;;;;;;;4.13;3.72;;;16.70;1.00;;;;;;7369795;19;20003;-73
2023/05/15 08:24:50;;;;;;;7.80;4.40;;;17.10;1.00;;;;;;7387802;19;20014;-72
2023/05/15 08:27:20;;;;;;;5.15;4.15;;;16.90;1.00;;;;;;7367000;19;20007;-72
2023/05/15 08:29:49;;;;;;;4.63;3.10;;;17.10;1.00;;;;;;7365667;19;20010;-72
2023/05/15 08:32:22;;;;;;;4.20;3.42;;;17.30;1.00;;;;;;7368578;19;20007;-73
2023/05/15 08:34:52;;;;;;;5.50;3.17;;;17.20;1.00;;;;;;7366412;19;20020;-72
2023/05/15 08:37:22;;;;;;;5.28;3.70;;;17.50;1.00;;;;;;7367845;19;20350;-72
2023/05/15 08:39:52;;;;;;;5.93;3.70;;;17.50;1.00;;;;;;7388748;19;20018;-72
2023/05/15 08:42:26;;;;;;;4.13;3.72;;;18.10;1.00;;;;;;7367658;19;20040;-73
2023/05/15 08:44:57;;;;;;;;;;;17.60;1.00;;;;;;7366999;19;20191;-72
2023/05/15 08:47:30;;;;;;;5.05;3.80;;;16.80;1.00;;;;;;7368017;19;19911;-72
2023/05/15 08:50:05;;;;;;;4.67;3.47;;;17.80;1.00;;;;;;7367355;19;20014;-72
2023/05/15 08:52:35;;;;;;;4.97;3.83;;;18.30;1.00;;;;;;7366702;19;20045;-72
2023/05/15 08:55:07;;;;;;;5.43;3.70;;;18.20;1.00;;;;;;7366644;19;20015;-72
2023/05/15 08:57:37;;;;;;;4.50;3.95;;;17.70;1.00;;;;;;7392178;19;20021;-72
2023/05/15 09:00:10;;;;;;;6.70;4.55;;;16.80;1.00;;;;;;7372702;19;20022;-72
2023/05/15 09:02:43;;;;;;;3.93;3.53;;;17.20;1.00;;;;;;7375340;19;20412;-72
2023/05/15 09:05:13;;;;;;;6.90;3.67;;;18.00;1.00;;;;;;7374380;19;20018;-73
2023/05/15 09:07:46;;;;;;;3.63;3.28;;;18.90;1.00;;;;;;7375980;19;20010;-72
2023/05/15 09:10:17;;;;;;;3.97;2.83;;;18.00;1.00;;;;;;7373923;19;20013;-72
2023/05/15 09:12:48;;;;;;;4.35;3.50;;;17.50;1.00;;;;;;7393444;19;20343;-72
2023/05/15 09:15:21;;;;;;;5.57;3.40;;;17.70;1.00;;;;;;7373873;19;20002;-72
2023/05/15 09:17:54;;;;;;;4.68;3.30;;;17.80;1.00;;;;;;7373660;19;20077;-72
2023/05/15 09:20:28;;;;;;;4.13;3.10;;;18.30;1.00;;;;;;7372168;19;20018;-72
2023/05/15 09:22:59;;;;;;;3.55;3.00;;;18.90;1.00;;;;;;7370852;19;20014;-72
2023/05/15 09:25:38;;;;;;;4.28;3.13;;;18.90;1.00;;;;;;7373962;19;20018;-72
2023/05/15 09:28:10;;;;;;;4.80;3.40;;;18.30;1.00;;;;;;7371522;19;20017;-72
2023/05/15 09:30:40;;;;;;;3.10;2.70;;;18.40;1.00;;;;;;7393022;19;20386;-72
2023/05/15 09:33:13;;;;;;;3.20;2.90;;;18.90;1.00;;;;;;7373459;19;20030;-72
2023/05/15 09:35:44;;;;;;;4.70;3.35;;;18.00;1.00;;;;;;7374673;19;20010;-72
2023/05/15 09:38:14;;;;;;;3.38;3.08;;;18.30;1.00;;;;;;7374301;19;20014;-72
2023/05/15 09:40:44;;;;;;;5.35;3.42;;;18.30;1.00;;;;;;7373708;19;20006;-72
2023/05/15 09:43:14;;;;;;;5.05;3.60;;;18.40;1.00;;;;;;7374088;19;20025;-72
2023/05/15 09:45:46;;;;;;;5.65;4.32;;;18.50;1.00;;;;;;7396210;19;20011;-72
2023/05/15 09:48:19;;;;;;;4.38;3.70;;;18.20;1.00;;;;;;7373331;19;20026;-72
2023/05/15 09:50:50;;;;;;;4.53;3.75;;;18.40;1.00;;;;;;7372635;19;20006;-72
2023/05/15 09:53:21;;;;;;;4.30;3.42;;;18.10;1.00;;;;;;7370862;19;20014;-72
2023/05/15 09:55:51;;;;;;;6.00;4.43;;;18.20;1.00;;;;;;7373409;19;20006;-72
2023/05/15 09:58:22;;;;;;;4.63;4.07;;;18.30;1.00;;;;;;7373633;19;20025;-72
2023/05/15 10:00:52;;;;;;;4.05;3.45;;;17.50;1.00;;;;;;7393086;19;20016;-71
2023/05/15 10:03:24;;;;;;;4.22;3.83;;;17.80;1.00;;;;;;7370926;19;20021;-71
2023/05/15 10:06:03;;;;;;;6.00;3.85;;;18.40;1.00;;;;;;7373596;19;20042;-71
2023/05/15 10:08:35;;;;;;;4.97;3.60;;;18.50;1.00;;;;;;7371055;19;20015;-71
2023/05/15 10:11:06;;;;;;;5.50;4.00;;;18.10;1.00;;;;;;7370605;19;20386;-72
2023/05/15 10:13:38;;;;;;;4.30;3.70;;;18.80;1.00;;;;;;7370699;19;20014;-72
2023/05/15 10:16:08;;;;;;;4.53;3.10;;;18.90;1.00;;;;;;7373860;19;20018;-72
2023/05/15 10:18:42;;;;;;;6.47;3.30;;;18.70;1.00;;;;;;7393502;19;20450;-72
2023/05/15 10:21:13;;;;;;;4.38;3.03;;;19.50;1.00;;;;;;7371953;19;20023;-72
2023/05/15 10:23:45;;;;;;;4.53;3.05;;;19.20;1.00;;;;;;7369546;19;20085;-72
2023/05/15 10:26:22;;;;;;;3.13;2.83;;;19.40;1.00;;;;;;7372971;19;20010;-72
2023/05/15 10:28:54;;;;;;;2.80;2.50;;;19.60;1.00;;;;;;7372841;19;20013;-72
2023/05/15 10:31:26;;;;;;;3.78;2.42;;;20.00;1.00;;;;;;7371577;19;20045;-72
2023/05/15 10:33:59;;;;;;;4.72;3.08;;;19.30;1.00;;;;;;7392033;19;20014;-72
2023/05/15 10:36:29;;;;;;;3.95;2.72;;;19.40;1.00;;;;;;7372997;19;20372;-72
2023/05/15 10:39:01;;;;;;;3.63;2.88;;;18.90;1.00;;;;;;7370723;19;20529;-73
2023/05/15 10:41:31;;;;;;;4.20;2.92;;;18.60;1.00;;;;;;7371881;19;20469;-73
2023/05/15 10:44:03;;;;;;;4.30;3.50;;;19.50;1.00;;;;;;7369125;19;20427;-73
2023/05/15 10:46:36;;;;;;;3.40;3.10;;;19.40;1.00;;;;;;7372421;19;20470;-72
2023/05/15 10:49:09;;;;;;;5.43;3.33;;;19.20;1.00;;;;;;7371777;19;20469;-71
2023/05/15 10:51:40;;;;;;;4.03;2.75;;;18.20;1.00;;;;;;7393514;19;20017;-70
2023/05/15 10:54:12;;;;;;;4.97;2.85;;;18.70;1.00;;;;;;7369593;19;20018;-72
2023/05/15 10:56:44;;;;;;;4.32;3.08;;;18.70;1.00;;;;;;7371654;19;20023;-72
2023/05/15 10:59:13;;;;;;;3.75;2.60;;;19.30;1.00;;;;;;7371477;19;20082;-72
2023/05/15 11:01:43;;;;;;;3.03;2.70;;;19.70;1.00;;;;;;7371241;19;20010;-72
2023/05/15 11:04:18;;;;;;;3.35;2.67;;;19.70;1.00;;;;;;7369623;19;20474;-72
2023/05/15 11:06:49;;;;;;;3.15;2.60;;;19.50;1.00;;;;;;7394139;19;20019;-72
2023/05/15 11:09:35;;;;;;;3.97;3.20;;;19.40;1.00;;;;;;7371099;19;20452;-71
2023/05/15 11:12:06;;;;;;;5.32;3.10;;;19.40;1.00;;;;;;7369898;19;20085;-71
2023/05/15 11:14:39;;;;;;;3.72;2.42;;;19.00;1.00;;;;;;7367516;19;20035;-73
2023/05/15 11:17:10;;;;;;;3.60;3.10;;;19.10;1.00;;;;;;7370795;19;20011;-72
2023/05/15 11:19:59;;;;;;;3.30;2.72;;;19.90;1.00;;;;;;7370725;19;20026;-72
2023/05/15 11:22:34;;;;;;;3.42;2.60;;;19.80;1.00;;;;;;7370550;19;20007;-72
2023/05/15 11:25:07;;;;;;;4.25;2.90;;;20.30;1.00;;;;;;7370099;19;20032;-71
2023/05/15 11:27:41;;;;;;;4.18;3.10;;;20.30;1.00;;;;;;7393382;19;20006;-73
2023/05/15 11:30:18;;;;;;;3.40;2.97;;;20.00;1.00;;;;;;7367704;19;20020;-73
2023/05/15 11:32:53;;;;;;;4.13;3.30;;;20.10;1.00;;;;;;7368342;19;20545;-74
2023/05/15 11:35:29;;;;;;;3.28;2.80;;;20.50;1.00;;;;;;7369288;19;20014;-73
2023/05/15 11:38:00;;;;;;;3.78;2.90;;;20.50;1.00;;;;;;7371333;19;20002;-73
2023/05/15 11:40:32;;;;;;;3.65;2.80;;;20.10;1.00;;;;;;7368782;19;20018;-73
2023/05/15 11:43:09;;;;;;;5.47;3.20;;;19.50;1.00;;;;;;7369399;19;20463;-73
2023/05/15 11:45:41;;;;;;;6.25;3.30;;;19.60;1.00;;;;;;7391893;19;20018;-73
2023/05/15 11:48:16;;;;;;;3.40;2.95;;;19.80;1.00;;;;;;7370576;19;20060;-73
2023/05/15 11:50:52;;;;;;;2.65;2.45;;;20.00;1.00;;;;;;7369437;19;20013;-73
2023/05/15 11:53:23;;;;;;;4.60;3.03;;;19.90;1.00;;;;;;7367486;19;20489;-73
2023/05/15 11:55:54;;;;;;;5.05;3.20;;;20.10;1.00;;;;;;7369990;19;20475;-73
2023/05/15 11:58:26;;;;;;;3.55;3.00;;;19.40;1.00;;;;;;7369325;19;20021;-73
2023/05/15 12:00:56;;;;;;;6.90;3.20;;;19.10;1.00;;;;;;7390149;19;20357;-73
2023/05/15 12:03:27;;;;;;;3.78;3.00;;;19.20;1.00;;;;;;7367182;19;20543;-73
2023/05/15 12:06:00;;;;;;;4.97;2.85;;;19.30;1.00;;;;;;7369536;19;20011;-72
2023/05/15 12:08:35;;;;;;;3.35;2.90;;;19.70;1.00;;;;;;7368737;19;20015;-72
2023/05/15 12:11:06;;;;;;;6.47;3.17;;;19.80;1.00;;;;;;7368057;19;20023;-72
2023/05/15 12:13:36;;;;;;;3.63;3.13;;;19.40;1.00;;;;;;7366696;19;20034;-72
2023/05/15 12:16:07;;;;;;;4.43;2.80;;;19.60;1.00;;;;;;7369533;19;20033;-72
2023/05/15 12:18:37;;;;;;;4.80;2.97;;;19.80;1.00;;;;;;7391535;19;20096;-72
2023/05/15 12:21:11;;;;;;;3.63;2.80;;;19.60;1.00;;;;;;7367998;19;20098;-73
2023/05/15 12:23:43;;;;;;;3.65;2.90;;;19.30;1.00;;;;;;7366441;19;20636;-72
2023/05/15 12:26:26;;;;;;;3.08;2.70;;;19.00;1.00;;;;;;7368770;19;20044;-72
2023/05/15 12:28:56;;;;;;;3.53;2.95;;;19.50;1.00;;;;;;7368439;19;20035;-71
2023/05/15 12:31:26;;;;;;;4.00;2.85;;;19.90;1.00;;;;;;7368493;19;20018;-72
2023/05/15 12:33:57;;;;;;;3.10;2.80;;;19.80;1.00;;;;;;7386000;19;20414;-73
2023/05/15 12:36:31;;;;;;;5.63;2.67;;;19.30;1.00;;;;;;7369506;19;20038;-72
2023/05/15 12:39:07;;;;;;;3.30;2.60;;;19.30;1.00;;;;;;7367483;19;20073;-73
2023/05/15 12:41:39;;;;;;;3.63;2.60;;;18.70;1.00;;;;;;7368203;19;20014;-73
2023/05/15 12:44:17;;;;;;;6.50;2.90;;;18.40;1.00;;;;;;7365679;19;20566;-73
2023/05/15 12:46:48;;;;;;;3.22;2.92;;;18.10;1.00;;;;;;7368331;19;20007;-73
2023/05/15 12:49:23;;;;;;;5.13;3.28;;;18.20;1.00;;;;;;7367217;19;20011;-73
2023/05/15 12:51:55;;;;;;;3.80;3.08;;;18.10;1.00;;;;;;7389027;19;20966;-74
2023/05/15 12:54:25;;;;;;;6.88;3.10;;;18.40;1.00;;;;;;7364286;19;20019;-73
2023/05/15 12:56:57;;;;;;;4.70;3.33;;;18.50;1.00;;;;;;7366841;19;20057;-72
2023/05/15 12:59:30;;;;;;;3.45;3.10;;;18.40;1.00;;;;;;7366481;19;20010;-74
2023/05/15 13:02:00;;;;;;;3.72;3.05;;;18.70;1.00;;;;;;7367159;19;20494;-72
2023/05/15 13:04:30;;;;;;;7.18;3.00;;;18.90;1.00;;;;;;7366715;19;20508;-71
2023/05/15 13:07:03;;;;;;;3.90;3.38;;;18.90;1.00;;;;;;7363445;19;20015;-70
2023/05/15 13:09:34;;;;;;;3.47;3.17;;;19.20;1.00;;;;;;7387024;19;20078;-72
2023/05/15 13:12:05;;;;;;;3.50;3.20;;;19.40;1.00;;;;;;7328375;19;20098;-72
2023/05/15 13:14:35;;;;;;;3.92;3.53;;;19.20;1.00;;;;;;7358946;19;20011;-72
2023/05/15 13:17:08;;;;;;;4.20;3.80;;;19.40;1.00;;;;;;7364153;19;20006;-73
2023/05/15 13:22:18;;;;;;;4.05;3.45;;;19.80;1.00;;;;;;7361432;19;20011;-72
2023/05/15 13:24:48;;;;;;;3.53;3.20;;;20.10;1.00;;;;;;7386966;19;20091;-72